Navios Pollux — 3FPO2 — position and weather

sailwx.info

Track history (hours):
 
Tides and Currents Weather Stations Pressure Air Temp Water Temp Dewpoint Dewpoint Depression Visibility Wind Speed Wind Dir Waves Ship Positions

Navios Pollux

Last reported at 2017-Jan-12 08:33 UTC. Time now 2017-Jan-16 17:12 UTC.
Position N 53°33' E 003°52'.

Length 292 m; draft 8.8 m.

Type: Cargo ship. MMSI: 370290000.

Date/timePositionNaut miles runAvg speedWind from/ knotsBaromVisibWave heightAir tempDewpointWater temp
2017-Jan-12 08:33N 53°33' E 003°52'7 7.0
2017-Jan-12 07:33N 53°28' E 003°44'6 6.4
2017-Jan-12 06:33N 53°22' E 003°43'43 7.2
2017-Jan-12 00:31N 52°38' E 003°43'7 6.3
2017-Jan-11 23:25N 52°32' E 003°39'4 4.5
2017-Jan-11 22:33N 52°31' E 003°45'5 5.0
2017-Jan-11 21:33N 52°31' E 003°53'4 4.4
2017-Jan-11 20:33N 52°31' E 004°00'4 4.3
2017-Jan-11 19:33N 52°31' E 004°08'4 4.0
2017-Jan-11 18:33N 52°31' E 004°14'4 3.8
2017-Jan-11 17:33N 52°30' E 004°20'2 2.4
2017-Jan-11 16:33N 52°29' E 004°24'7 6.6
2017-Jan-11 15:33N 52°28' E 004°35'1 1.2
2017-Jan-11 14:33N 52°28' E 004°37'5 4.9
2017-Jan-11 13:34N 52°26' E 004°44'2 2.2
2017-Jan-11 12:31N 52°24' E 004°47'0 0.0
2017-Jan-11 11:31N 52°24' E 004°47'0 0.0
2017-Jan-11 10:31N 52°24' E 004°47'0 0.0
2017-Jan-11 09:31N 52°24' E 004°47'0 0.0
2017-Jan-11 08:31N 52°24' E 004°47'0 0.0
2017-Jan-11 07:31N 52°24' E 004°47'0 0.0
2017-Jan-11 06:31N 52°24' E 004°47'0 0.0
2017-Jan-11 05:28N 52°24' E 004°47'0 0.0
2017-Jan-11 04:31N 52°24' E 004°47'0 0.0
2017-Jan-11 03:31N 52°24' E 004°47'0 0.0
2017-Jan-11 02:31N 52°24' E 004°47'0 0.0
2017-Jan-11 01:31N 52°24' E 004°47'0 0.0
2017-Jan-11 00:31N 52°24' E 004°47'0 0.0
2017-Jan-10 23:31N 52°24' E 004°47'0 0.0
2017-Jan-10 22:31N 52°24' E 004°47'0 0.0
2017-Jan-10 21:31N 52°24' E 004°47'0 0.0
2017-Jan-10 20:31N 52°24' E 004°47'0 0.0
2017-Jan-10 19:31N 52°24' E 004°47'0 0.0
2017-Jan-10 18:31N 52°24' E 004°47'0 0.0
2017-Jan-10 17:31N 52°24' E 004°47'0 0.0
2017-Jan-10 16:28N 52°24' E 004°47'0 0.0
2017-Jan-10 15:31N 52°24' E 004°47'0 0.0
2017-Jan-10 14:31N 52°24' E 004°47'0 0.0
2017-Jan-10 13:31N 52°24' E 004°47'0 0.0
2017-Jan-10 12:31N 52°24' E 004°47'0 0.0
2017-Jan-10 11:31N 52°24' E 004°47'0 0.0
2017-Jan-10 10:31N 52°24' E 004°47'0 0.0
2017-Jan-10 09:31N 52°24' E 004°47'0 0.0
2017-Jan-10 08:31N 52°24' E 004°47'0 0.0
2017-Jan-10 07:31N 52°24' E 004°47'0 0.0
2017-Jan-10 06:31N 52°24' E 004°47'0 0.0
2017-Jan-10 05:31N 52°24' E 004°47'0 0.0
2017-Jan-10 04:31N 52°24' E 004°47'0 0.0
2017-Jan-10 03:31N 52°24' E 004°47'0 0.0
2017-Jan-10 02:31N 52°24' E 004°47'0 0.0
2017-Jan-10 01:31N 52°24' E 004°47'0 0.0
2017-Jan-10 00:31N 52°24' E 004°47'0 0.0
2017-Jan-09 23:31N 52°24' E 004°47'0 0.0
2017-Jan-09 22:31N 52°24' E 004°47'0 0.0
2017-Jan-09 21:31N 52°24' E 004°47'0 0.0
2017-Jan-09 20:33N 52°24' E 004°47'0 0.0
2017-Jan-09 19:33N 52°24' E 004°47'0 0.0
2017-Jan-09 18:33N 52°24' E 004°47'0 0.0
2017-Jan-09 17:33N 52°24' E 004°47'0 0.0
2017-Jan-09 16:33N 52°24' E 004°47'0 0.0
2017-Jan-09 15:33N 52°24' E 004°47'0 0.0
2017-Jan-09 14:33N 52°24' E 004°47'0 0.0
2017-Jan-09 13:33N 52°24' E 004°47'0 0.0
2017-Jan-09 12:33N 52°24' E 004°47'0 0.0
2017-Jan-09 11:33N 52°24' E 004°47'0 0.0
2017-Jan-09 10:33N 52°24' E 004°47'0 0.0
2017-Jan-09 09:33N 52°24' E 004°47'0 0.0
2017-Jan-09 08:33N 52°24' E 004°47'0 0.0
2017-Jan-09 07:33N 52°24' E 004°47'0 0.0
2017-Jan-09 06:33N 52°24' E 004°47'0 0.0
2017-Jan-09 05:33N 52°24' E 004°47'0 0.0
2017-Jan-09 04:33N 52°24' E 004°47'0 0.0
2017-Jan-09 03:33N 52°24' E 004°47'0 0.0
2017-Jan-09 02:33N 52°24' E 004°47'0 0.0
2017-Jan-09 01:33N 52°24' E 004°47'0 0.0
2017-Jan-09 00:33N 52°24' E 004°47'0 0.0
2017-Jan-08 23:33N 52°24' E 004°47'0 0.0
2017-Jan-08 22:33N 52°24' E 004°47'0 0.0
2017-Jan-08 21:33N 52°24' E 004°47'0 0.0
2017-Jan-08 20:33N 52°24' E 004°47'0 0.0
2017-Jan-08 19:33N 52°24' E 004°47'0 0.0
2017-Jan-08 18:33N 52°24' E 004°47'0 0.0
2017-Jan-08 17:33N 52°24' E 004°47'0 0.0
2017-Jan-08 16:33N 52°24' E 004°47'0 0.0
2017-Jan-08 15:33N 52°24' E 004°47'0 0.0
2017-Jan-08 14:33N 52°24' E 004°47'0 0.0
2017-Jan-08 13:30N 52°24' E 004°47'0 0.0
2017-Jan-08 12:33N 52°24' E 004°47'0 0.0
2017-Jan-08 11:33N 52°24' E 004°47'0 0.0
2017-Jan-08 10:33N 52°24' E 004°47'0 0.0
2017-Jan-08 09:33N 52°24' E 004°47'0 0.0
2017-Jan-08 08:33N 52°24' E 004°47'0 0.0
2017-Jan-08 07:33N 52°24' E 004°47'0 0.0
2017-Jan-08 06:33N 52°24' E 004°47'0 0.0
2017-Jan-08 05:33N 52°24' E 004°47'0 0.0
2017-Jan-08 04:33N 52°24' E 004°47'0 0.0
2017-Jan-08 03:33N 52°24' E 004°47'0 0.0
2017-Jan-08 02:33N 52°24' E 004°47'0 0.0
2017-Jan-08 01:33N 52°24' E 004°47'4 3.9
2017-Jan-08 00:34N 52°27' E 004°42'3 3.4
2017-Jan-07 23:34N 52°28' E 004°36'3 2.6
2017-Jan-07 22:33N 52°28' E 004°32'8 8.1
2017-Jan-07 21:33N 52°29' E 004°19'6 6.1
2017-Jan-07 20:33N 52°28' E 004°09'0 0.2
2017-Jan-07 19:30N 52°28' E 004°09'1 0.9
2017-Jan-07 18:33N 52°27' E 004°08'8 8.2
2017-Jan-07 17:33N 52°25' E 003°55'8 8.1
2017-Jan-07 16:33N 52°17' E 003°52'1110.6
2017-Jan-07 15:33N 52°07' E 003°54'5 4.7
2017-Jan-07 14:33N 52°02' E 003°57'7 6.9
2017-Jan-07 13:33N 51°57' E 004°05'1 1.5
2017-Jan-07 12:33N 51°56' E 004°03'0 0.0
2017-Jan-07 11:32N 51°56' E 004°03'0 0.0
2017-Jan-07 10:32N 51°56' E 004°03'0 0.0
2017-Jan-07 09:32N 51°56' E 004°03'0 0.0
2017-Jan-07 08:32N 51°56' E 004°03'0 0.0
2017-Jan-07 07:32N 51°56' E 004°03'0 0.0
2017-Jan-07 06:32N 51°56' E 004°03'0 0.0
2017-Jan-07 05:32N 51°56' E 004°03'0 0.0
2017-Jan-07 04:32N 51°56' E 004°03'0 0.0
2017-Jan-07 03:32N 51°56' E 004°03'0 0.0
2017-Jan-07 02:32N 51°56' E 004°03'0 0.0
2017-Jan-07 01:32N 51°56' E 004°03'0 0.0
2017-Jan-07 00:32N 51°56' E 004°03'0 0.0
2017-Jan-06 23:32N 51°56' E 004°03'0 0.0
2017-Jan-06 22:32N 51°56' E 004°03'0 0.0
2017-Jan-06 21:32N 51°56' E 004°03'0 0.0
2017-Jan-06 20:32N 51°56' E 004°03'0 0.0
2017-Jan-06 19:32N 51°56' E 004°03'0 0.0
2017-Jan-06 18:32N 51°56' E 004°03'0 0.0
2017-Jan-06 17:32N 51°56' E 004°03'0 0.0
2017-Jan-06 16:32N 51°56' E 004°03'0 0.0
2017-Jan-06 15:32N 51°56' E 004°03'0 0.0
2017-Jan-06 14:32N 51°56' E 004°03'0 0.0
2017-Jan-06 13:32N 51°56' E 004°03'0 0.0
2017-Jan-06 12:32N 51°56' E 004°03'0 0.0
2017-Jan-06 11:32N 51°56' E 004°03'0 0.0
2017-Jan-06 10:32N 51°56' E 004°03'0 0.0
2017-Jan-06 09:32N 51°56' E 004°03'0 0.0
2017-Jan-06 08:32N 51°56' E 004°03'0 0.0
2017-Jan-06 07:32N 51°56' E 004°03'0 0.0
2017-Jan-06 06:32N 51°56' E 004°03'0 0.0
2017-Jan-06 05:32N 51°56' E 004°03'0 0.0
2017-Jan-06 04:32N 51°56' E 004°03'0 0.0
2017-Jan-06 03:32N 51°56' E 004°03'0 0.0
2017-Jan-06 02:32N 51°56' E 004°03'0 0.0
2017-Jan-06 01:32N 51°56' E 004°03'0 0.0
2017-Jan-06 00:32N 51°56' E 004°03'0 0.0
2017-Jan-05 23:32N 51°56' E 004°03'0 0.0
2017-Jan-05 22:32N 51°56' E 004°03'0 0.0
2017-Jan-05 21:32N 51°56' E 004°03'0 0.0
2017-Jan-05 20:32N 51°56' E 004°03'0 0.0
2017-Jan-05 19:32N 51°56' E 004°03'0 0.0
2017-Jan-05 18:32N 51°56' E 004°03'0 0.0
2017-Jan-05 17:32N 51°56' E 004°03'0 0.0
2017-Jan-05 16:32N 51°56' E 004°03'0 0.0
2017-Jan-05 15:32N 51°56' E 004°03'0 0.0
2017-Jan-05 14:32N 51°56' E 004°03'0 0.0
2017-Jan-05 13:32N 51°56' E 004°03'0 0.0
2017-Jan-05 12:32N 51°56' E 004°03'0 0.0
2017-Jan-05 11:32N 51°56' E 004°03'0 0.0
2017-Jan-05 10:21N 51°56' E 004°03'0 0.0
2017-Jan-05 09:31N 51°56' E 004°03'0 0.0
2017-Jan-05 08:31N 51°56' E 004°03'0 0.0
2017-Jan-05 07:31N 51°56' E 004°03'0 0.0
2017-Jan-05 06:28N 51°56' E 004°03'0 0.0
2017-Jan-05 05:31N 51°56' E 004°03'0 0.0
2017-Jan-05 04:31N 51°56' E 004°03'0 0.0
2017-Jan-05 03:31N 51°56' E 004°03'0 0.0
2017-Jan-05 02:31N 51°56' E 004°03'0 0.0
2017-Jan-05 01:31N 51°56' E 004°03'0 0.0
2017-Jan-05 00:31N 51°56' E 004°03'0 0.0
2017-Jan-04 23:31N 51°56' E 004°03'0 0.0
2017-Jan-04 22:31N 51°56' E 004°03'0 0.0
2017-Jan-04 21:31N 51°56' E 004°03'0 0.0
2017-Jan-04 20:31N 51°56' E 004°03'0 0.0
2017-Jan-04 19:31N 51°56' E 004°03'0 0.0
2017-Jan-04 18:31N 51°56' E 004°03'0 0.0
2017-Jan-04 17:31N 51°56' E 004°03'0 0.0
2017-Jan-04 16:31N 51°56' E 004°03'0 0.0
2017-Jan-04 15:31N 51°56' E 004°03'0 0.0
2017-Jan-04 14:31N 51°56' E 004°03'0 0.0
2017-Jan-04 13:31N 51°56' E 004°03'0 0.0
2017-Jan-04 12:31N 51°56' E 004°03'0 0.0
2017-Jan-04 11:31N 51°56' E 004°03'0 0.0
2017-Jan-04 10:31N 51°56' E 004°03'0 0.0
2017-Jan-04 09:31N 51°56' E 004°03'0 0.0
2017-Jan-04 08:31N 51°56' E 004°03'0 0.0
2017-Jan-04 07:31N 51°56' E 004°03'0 0.0
2017-Jan-04 06:31N 51°56' E 004°03'0 0.0
2017-Jan-04 05:31N 51°56' E 004°03'0 0.0
2017-Jan-04 04:31N 51°56' E 004°03'0 0.0
2017-Jan-04 03:31N 51°56' E 004°03'0 0.0
2017-Jan-04 02:31N 51°56' E 004°03'0 0.0
2017-Jan-04 01:31N 51°56' E 004°03'0 0.0
2017-Jan-04 00:31N 51°56' E 004°03'0 0.0
2017-Jan-03 23:31N 51°56' E 004°03'0 0.0
2017-Jan-03 22:31N 51°56' E 004°03'0 0.0
2017-Jan-03 21:31N 51°56' E 004°03'0 0.0
2017-Jan-03 20:31N 51°56' E 004°03'0 0.0
2017-Jan-03 19:31N 51°56' E 004°03'0 0.0
2017-Jan-03 18:31N 51°56' E 004°03'0 0.0
2017-Jan-03 17:31N 51°56' E 004°03'0 0.0
2017-Jan-03 16:31N 51°56' E 004°03'0 0.1
2017-Jan-03 15:34N 51°56' E 004°03'3 3.4
2017-Jan-03 14:34N 51°59' E 004°02'9 9.3
2017-Jan-03 13:34N 52°01' E 003°47'8 7.6
2017-Jan-03 12:33N 51°58' E 003°36'44 5.5
2017-Jan-03 04:32N 51°42' E 002°29'1411.0
2017-Jan-03 03:15N 51°31' E 002°14'810.7
2017-Jan-03 02:33N 51°26' E 002°06'1010.2
2017-Jan-03 01:33N 51°18' E 001°55'9 9.4
2017-Jan-03 00:34N 51°11' E 001°46'8 7.5
2017-Jan-02 23:33N 51°04' E 001°39'6 6.3
2017-Jan-02 22:33N 50°60' E 001°33'6 6.1
2017-Jan-02 21:33N 50°55' E 001°27'6 6.2
2017-Jan-02 20:33N 50°49' E 001°23'7 7.0
2017-Jan-02 19:33N 50°42' E 001°21'49 8.2
2017-Jan-02 13:33N 50°21' E 000°11'10 9.7
2017-Jan-02 12:33N 50°18' W 000°04'1110.6
2017-Jan-02 11:31N 50°15' W 000°20'1111.1
2017-Jan-02 10:31N 50°12' W 000°37'1010.9
2017-Jan-02 09:33N 50°09' W 000°52'  
Track history (hours):
 
Tides and Currents Weather Stations Pressure Air Temp Water Temp Dewpoint Dewpoint Depression Visibility Wind Speed Wind Dir Waves Ship Positions

Navios Pollux

Last reported at 2017-Jan-12 08:33 UTC. Time now 2017-Jan-16 17:12 UTC.
Position N 53°33' E 003°52'.

Length 292 m; draft 8.8 m.

Type: Cargo ship. MMSI: 370290000.

Date/timePositionNaut miles runAvg speedWind from/ knotsBaromVisibWave heightAir tempDewpointWater temp
2017-Jan-12 08:33N 53°33' E 003°52'7 7.0
2017-Jan-12 07:33N 53°28' E 003°44'6 6.4
2017-Jan-12 06:33N 53°22' E 003°43'43 7.2
2017-Jan-12 00:31N 52°38' E 003°43'7 6.3
2017-Jan-11 23:25N 52°32' E 003°39'4 4.5
2017-Jan-11 22:33N 52°31' E 003°45'5 5.0
2017-Jan-11 21:33N 52°31' E 003°53'4 4.4
2017-Jan-11 20:33N 52°31' E 004°00'4 4.3
2017-Jan-11 19:33N 52°31' E 004°08'4 4.0
2017-Jan-11 18:33N 52°31' E 004°14'4 3.8
2017-Jan-11 17:33N 52°30' E 004°20'2 2.4
2017-Jan-11 16:33N 52°29' E 004°24'7 6.6
2017-Jan-11 15:33N 52°28' E 004°35'1 1.2
2017-Jan-11 14:33N 52°28' E 004°37'5 4.9
2017-Jan-11 13:34N 52°26' E 004°44'2 2.2
2017-Jan-11 12:31N 52°24' E 004°47'0 0.0
2017-Jan-11 11:31N 52°24' E 004°47'0 0.0
2017-Jan-11 10:31N 52°24' E 004°47'0 0.0
2017-Jan-11 09:31N 52°24' E 004°47'0 0.0
2017-Jan-11 08:31N 52°24' E 004°47'0 0.0
2017-Jan-11 07:31N 52°24' E 004°47'0 0.0
2017-Jan-11 06:31N 52°24' E 004°47'0 0.0
2017-Jan-11 05:28N 52°24' E 004°47'0 0.0
2017-Jan-11 04:31N 52°24' E 004°47'0 0.0
2017-Jan-11 03:31N 52°24' E 004°47'0 0.0
2017-Jan-11 02:31N 52°24' E 004°47'0 0.0
2017-Jan-11 01:31N 52°24' E 004°47'0 0.0
2017-Jan-11 00:31N 52°24' E 004°47'0 0.0
2017-Jan-10 23:31N 52°24' E 004°47'0 0.0
2017-Jan-10 22:31N 52°24' E 004°47'0 0.0
2017-Jan-10 21:31N 52°24' E 004°47'0 0.0
2017-Jan-10 20:31N 52°24' E 004°47'0 0.0
2017-Jan-10 19:31N 52°24' E 004°47'0 0.0
2017-Jan-10 18:31N 52°24' E 004°47'0 0.0
2017-Jan-10 17:31N 52°24' E 004°47'0 0.0
2017-Jan-10 16:28N 52°24' E 004°47'0 0.0
2017-Jan-10 15:31N 52°24' E 004°47'0 0.0
2017-Jan-10 14:31N 52°24' E 004°47'0 0.0
2017-Jan-10 13:31N 52°24' E 004°47'0 0.0
2017-Jan-10 12:31N 52°24' E 004°47'0 0.0
2017-Jan-10 11:31N 52°24' E 004°47'0 0.0
2017-Jan-10 10:31N 52°24' E 004°47'0 0.0
2017-Jan-10 09:31N 52°24' E 004°47'0 0.0
2017-Jan-10 08:31N 52°24' E 004°47'0 0.0
2017-Jan-10 07:31N 52°24' E 004°47'0 0.0
2017-Jan-10 06:31N 52°24' E 004°47'0 0.0
2017-Jan-10 05:31N 52°24' E 004°47'0 0.0
2017-Jan-10 04:31N 52°24' E 004°47'0 0.0
2017-Jan-10 03:31N 52°24' E 004°47'0 0.0
2017-Jan-10 02:31N 52°24' E 004°47'0 0.0
2017-Jan-10 01:31N 52°24' E 004°47'0 0.0
2017-Jan-10 00:31N 52°24' E 004°47'0 0.0
2017-Jan-09 23:31N 52°24' E 004°47'0 0.0
2017-Jan-09 22:31N 52°24' E 004°47'0 0.0
2017-Jan-09 21:31N 52°24' E 004°47'0 0.0
2017-Jan-09 20:33N 52°24' E 004°47'0 0.0
2017-Jan-09 19:33N 52°24' E 004°47'0 0.0
2017-Jan-09 18:33N 52°24' E 004°47'0 0.0
2017-Jan-09 17:33N 52°24' E 004°47'0 0.0
2017-Jan-09 16:33N 52°24' E 004°47'0 0.0
2017-Jan-09 15:33N 52°24' E 004°47'0 0.0
2017-Jan-09 14:33N 52°24' E 004°47'0 0.0
2017-Jan-09 13:33N 52°24' E 004°47'0 0.0
2017-Jan-09 12:33N 52°24' E 004°47'0 0.0
2017-Jan-09 11:33N 52°24' E 004°47'0 0.0
2017-Jan-09 10:33N 52°24' E 004°47'0 0.0
2017-Jan-09 09:33N 52°24' E 004°47'0 0.0
2017-Jan-09 08:33N 52°24' E 004°47'0 0.0
2017-Jan-09 07:33N 52°24' E 004°47'0 0.0
2017-Jan-09 06:33N 52°24' E 004°47'0 0.0
2017-Jan-09 05:33N 52°24' E 004°47'0 0.0
2017-Jan-09 04:33N 52°24' E 004°47'0 0.0
2017-Jan-09 03:33N 52°24' E 004°47'0 0.0
2017-Jan-09 02:33N 52°24' E 004°47'0 0.0
2017-Jan-09 01:33N 52°24' E 004°47'0 0.0
2017-Jan-09 00:33N 52°24' E 004°47'0 0.0
2017-Jan-08 23:33N 52°24' E 004°47'0 0.0
2017-Jan-08 22:33N 52°24' E 004°47'0 0.0
2017-Jan-08 21:33N 52°24' E 004°47'0 0.0
2017-Jan-08 20:33N 52°24' E 004°47'0 0.0
2017-Jan-08 19:33N 52°24' E 004°47'0 0.0
2017-Jan-08 18:33N 52°24' E 004°47'0 0.0
2017-Jan-08 17:33N 52°24' E 004°47'0 0.0
2017-Jan-08 16:33N 52°24' E 004°47'0 0.0
2017-Jan-08 15:33N 52°24' E 004°47'0 0.0
2017-Jan-08 14:33N 52°24' E 004°47'0 0.0
2017-Jan-08 13:30N 52°24' E 004°47'0 0.0
2017-Jan-08 12:33N 52°24' E 004°47'0 0.0
2017-Jan-08 11:33N 52°24' E 004°47'0 0.0
2017-Jan-08 10:33N 52°24' E 004°47'0 0.0
2017-Jan-08 09:33N 52°24' E 004°47'0 0.0
2017-Jan-08 08:33N 52°24' E 004°47'0 0.0
2017-Jan-08 07:33N 52°24' E 004°47'0 0.0
2017-Jan-08 06:33N 52°24' E 004°47'0 0.0
2017-Jan-08 05:33N 52°24' E 004°47'0 0.0
2017-Jan-08 04:33N 52°24' E 004°47'0 0.0
2017-Jan-08 03:33N 52°24' E 004°47'0 0.0
2017-Jan-08 02:33N 52°24' E 004°47'0 0.0
2017-Jan-08 01:33N 52°24' E 004°47'4 3.9
2017-Jan-08 00:34N 52°27' E 004°42'3 3.4
2017-Jan-07 23:34N 52°28' E 004°36'3 2.6
2017-Jan-07 22:33N 52°28' E 004°32'8 8.1
2017-Jan-07 21:33N 52°29' E 004°19'6 6.1
2017-Jan-07 20:33N 52°28' E 004°09'0 0.2
2017-Jan-07 19:30N 52°28' E 004°09'1 0.9
2017-Jan-07 18:33N 52°27' E 004°08'8 8.2
2017-Jan-07 17:33N 52°25' E 003°55'8 8.1
2017-Jan-07 16:33N 52°17' E 003°52'1110.6
2017-Jan-07 15:33N 52°07' E 003°54'5 4.7
2017-Jan-07 14:33N 52°02' E 003°57'7 6.9
2017-Jan-07 13:33N 51°57' E 004°05'1 1.5
2017-Jan-07 12:33N 51°56' E 004°03'0 0.0
2017-Jan-07 11:32N 51°56' E 004°03'0 0.0
2017-Jan-07 10:32N 51°56' E 004°03'0 0.0
2017-Jan-07 09:32N 51°56' E 004°03'0 0.0
2017-Jan-07 08:32N 51°56' E 004°03'0 0.0
2017-Jan-07 07:32N 51°56' E 004°03'0 0.0
2017-Jan-07 06:32N 51°56' E 004°03'0 0.0
2017-Jan-07 05:32N 51°56' E 004°03'0 0.0
2017-Jan-07 04:32N 51°56' E 004°03'0 0.0
2017-Jan-07 03:32N 51°56' E 004°03'0 0.0
2017-Jan-07 02:32N 51°56' E 004°03'0 0.0
2017-Jan-07 01:32N 51°56' E 004°03'0 0.0
2017-Jan-07 00:32N 51°56' E 004°03'0 0.0
2017-Jan-06 23:32N 51°56' E 004°03'0 0.0
2017-Jan-06 22:32N 51°56' E 004°03'0 0.0
2017-Jan-06 21:32N 51°56' E 004°03'0 0.0
2017-Jan-06 20:32N 51°56' E 004°03'0 0.0
2017-Jan-06 19:32N 51°56' E 004°03'0 0.0
2017-Jan-06 18:32N 51°56' E 004°03'0 0.0
2017-Jan-06 17:32N 51°56' E 004°03'0 0.0
2017-Jan-06 16:32N 51°56' E 004°03'0 0.0
2017-Jan-06 15:32N 51°56' E 004°03'0 0.0
2017-Jan-06 14:32N 51°56' E 004°03'0 0.0
2017-Jan-06 13:32N 51°56' E 004°03'0 0.0
2017-Jan-06 12:32N 51°56' E 004°03'0 0.0
2017-Jan-06 11:32N 51°56' E 004°03'0 0.0
2017-Jan-06 10:32N 51°56' E 004°03'0 0.0
2017-Jan-06 09:32N 51°56' E 004°03'0 0.0
2017-Jan-06 08:32N 51°56' E 004°03'0 0.0
2017-Jan-06 07:32N 51°56' E 004°03'0 0.0
2017-Jan-06 06:32N 51°56' E 004°03'0 0.0
2017-Jan-06 05:32N 51°56' E 004°03'0 0.0
2017-Jan-06 04:32N 51°56' E 004°03'0 0.0
2017-Jan-06 03:32N 51°56' E 004°03'0 0.0
2017-Jan-06 02:32N 51°56' E 004°03'0 0.0
2017-Jan-06 01:32N 51°56' E 004°03'0 0.0
2017-Jan-06 00:32N 51°56' E 004°03'0 0.0
2017-Jan-05 23:32N 51°56' E 004°03'0 0.0
2017-Jan-05 22:32N 51°56' E 004°03'0 0.0
2017-Jan-05 21:32N 51°56' E 004°03'0 0.0
2017-Jan-05 20:32N 51°56' E 004°03'0 0.0
2017-Jan-05 19:32N 51°56' E 004°03'0 0.0
2017-Jan-05 18:32N 51°56' E 004°03'0 0.0
2017-Jan-05 17:32N 51°56' E 004°03'0 0.0
2017-Jan-05 16:32N 51°56' E 004°03'0 0.0
2017-Jan-05 15:32N 51°56' E 004°03'0 0.0
2017-Jan-05 14:32N 51°56' E 004°03'0 0.0
2017-Jan-05 13:32N 51°56' E 004°03'0 0.0
2017-Jan-05 12:32N 51°56' E 004°03'0 0.0
2017-Jan-05 11:32N 51°56' E 004°03'0 0.0
2017-Jan-05 10:21N 51°56' E 004°03'0 0.0
2017-Jan-05 09:31N 51°56' E 004°03'0 0.0
2017-Jan-05 08:31N 51°56' E 004°03'0 0.0
2017-Jan-05 07:31N 51°56' E 004°03'0 0.0
2017-Jan-05 06:28N 51°56' E 004°03'0 0.0
2017-Jan-05 05:31N 51°56' E 004°03'0 0.0
2017-Jan-05 04:31N 51°56' E 004°03'0 0.0
2017-Jan-05 03:31N 51°56' E 004°03'0 0.0
2017-Jan-05 02:31N 51°56' E 004°03'0 0.0
2017-Jan-05 01:31N 51°56' E 004°03'0 0.0
2017-Jan-05 00:31N 51°56' E 004°03'0 0.0
2017-Jan-04 23:31N 51°56' E 004°03'0 0.0
2017-Jan-04 22:31N 51°56' E 004°03'0 0.0
2017-Jan-04 21:31N 51°56' E 004°03'0 0.0
2017-Jan-04 20:31N 51°56' E 004°03'0 0.0
2017-Jan-04 19:31N 51°56' E 004°03'0 0.0
2017-Jan-04 18:31N 51°56' E 004°03'0 0.0
2017-Jan-04 17:31N 51°56' E 004°03'0 0.0
2017-Jan-04 16:31N 51°56' E 004°03'0 0.0
2017-Jan-04 15:31N 51°56' E 004°03'0 0.0
2017-Jan-04 14:31N 51°56' E 004°03'0 0.0
2017-Jan-04 13:31N 51°56' E 004°03'0 0.0
2017-Jan-04 12:31N 51°56' E 004°03'0 0.0
2017-Jan-04 11:31N 51°56' E 004°03'0 0.0
2017-Jan-04 10:31N 51°56' E 004°03'0 0.0
2017-Jan-04 09:31N 51°56' E 004°03'0 0.0
2017-Jan-04 08:31N 51°56' E 004°03'0 0.0
2017-Jan-04 07:31N 51°56' E 004°03'0 0.0
2017-Jan-04 06:31N 51°56' E 004°03'0 0.0
2017-Jan-04 05:31N 51°56' E 004°03'0 0.0
2017-Jan-04 04:31N 51°56' E 004°03'0 0.0
2017-Jan-04 03:31N 51°56' E 004°03'0 0.0
2017-Jan-04 02:31N 51°56' E 004°03'0 0.0
2017-Jan-04 01:31N 51°56' E 004°03'0 0.0
2017-Jan-04 00:31N 51°56' E 004°03'0 0.0
2017-Jan-03 23:31N 51°56' E 004°03'0 0.0
2017-Jan-03 22:31N 51°56' E 004°03'0 0.0
2017-Jan-03 21:31N 51°56' E 004°03'0 0.0
2017-Jan-03 20:31N 51°56' E 004°03'0 0.0
2017-Jan-03 19:31N 51°56' E 004°03'0 0.0
2017-Jan-03 18:31N 51°56' E 004°03'0 0.0
2017-Jan-03 17:31N 51°56' E 004°03'0 0.0
2017-Jan-03 16:31N 51°56' E 004°03'0 0.1
2017-Jan-03 15:34N 51°56' E 004°03'3 3.4
2017-Jan-03 14:34N 51°59' E 004°02'9 9.3
2017-Jan-03 13:34N 52°01' E 003°47'8 7.6
2017-Jan-03 12:33N 51°58' E 003°36'44 5.5
2017-Jan-03 04:32N 51°42' E 002°29'1411.0
2017-Jan-03 03:15N 51°31' E 002°14'810.7
2017-Jan-03 02:33N 51°26' E 002°06'1010.2
2017-Jan-03 01:33N 51°18' E 001°55'9 9.4
2017-Jan-03 00:34N 51°11' E 001°46'8 7.5
2017-Jan-02 23:33N 51°04' E 001°39'6 6.3
2017-Jan-02 22:33N 50°60' E 001°33'6 6.1
2017-Jan-02 21:33N 50°55' E 001°27'6 6.2
2017-Jan-02 20:33N 50°49' E 001°23'7 7.0
2017-Jan-02 19:33N 50°42' E 001°21'49 8.2
2017-Jan-02 13:33N 50°21' E 000°11'10 9.7
2017-Jan-02 12:33N 50°18' W 000°04'1110.6
2017-Jan-02 11:31N 50°15' W 000°20'1111.1
2017-Jan-02 10:31N 50°12' W 000°37'1010.9
2017-Jan-02 09:33N 50°09' W 000°52'  

Dump ship's entire track history